Time;durP1;ratioP1;P1;durP2;ratioP2;P2;SDS_P1;SDS_P2;PMS_P1;PMS_P2;Temp;Humidity;BMP_temperature;BMP_pressure;BME280_temperature;BME280_humidity;BME280_pressure;Samples;Min_cycle;Max_cycle;Signal;HPM_P1;HPM_P2
2021/12/29 00:01:02;;;;;;;;;;;5.40;99.90;;;;;;5138440;27;20345;-58
2021/12/29 00:03:27;;;;;;;;;;;5.40;99.90;;;;;;5128912;27;20402;-58
2021/12/29 00:05:53;;;;;;;;;;;5.40;99.90;;;;;;5131908;27;19927;-58
2021/12/29 00:08:18;;;;;;;;;;;5.40;99.90;;;;;;5133482;27;20214;-59
2021/12/29 00:10:46;;;;;;;;;;;5.40;99.90;;;;;;5132867;27;19974;-58
2021/12/29 00:13:12;;;;;;;;;;;5.40;99.90;;;;;;5139044;27;20002;-60
2021/12/29 00:15:38;;;;;;;;;;;5.40;99.90;;;;;;5140564;27;20467;-57
2021/12/29 00:18:04;;;;;;;;;;;5.40;99.90;;;;;;5141935;27;20355;-58
2021/12/29 00:20:31;;;;;;;;;;;5.40;99.90;;;;;;5129630;27;19931;-58
2021/12/29 00:23:01;;;;;;;;;;;5.40;99.90;;;;;;5142556;27;19939;-58
2021/12/29 00:25:27;;;;;;;;;;;7.00;99.90;;;;;;5131131;27;20512;-57
2021/12/29 00:27:58;;;;;;;;;;;5.40;99.90;;;;;;5129119;27;19931;-58
2021/12/29 00:30:23;;;;;;;;;;;5.50;99.90;;;;;;5142949;27;19927;-58
2021/12/29 00:32:49;;;;;;;;;;;5.60;99.90;;;;;;5133128;27;19927;-59
2021/12/29 00:35:15;;;;;;;;;;;5.60;99.90;;;;;;5134287;27;19926;-58
2021/12/29 00:37:41;;;;;;;;;;;5.60;99.90;;;;;;5148446;27;20478;-59
2021/12/29 00:40:07;;;;;;;;;;;5.60;99.90;;;;;;5132486;27;19932;-59
2021/12/29 00:42:33;;;;;;;;;;;5.60;99.90;;;;;;5137656;27;19928;-58
2021/12/29 00:44:58;;;;;;;;;;;5.70;99.90;;;;;;5129391;27;19934;-60
2021/12/29 00:47:24;;;;;;;;;;;5.70;99.90;;;;;;5131304;27;19988;-60
2021/12/29 00:49:50;;;;;;;;;;;5.60;99.90;;;;;;5138713;27;19927;-58
2021/12/29 00:52:15;;;;;;;;;;;5.80;99.90;;;;;;5140730;27;19928;-58
2021/12/29 00:54:42;;;;;;;;;;;5.70;99.90;;;;;;5138001;27;19931;-58
2021/12/29 00:57:08;;;;;;;;;;;6.00;99.90;;;;;;5139994;27;19927;-59
2021/12/29 00:59:33;;;;;;;;;;;5.60;99.90;;;;;;5141395;27;19938;-58
2021/12/29 01:01:59;;;;;;;;;;;5.60;99.90;;;;;;5146434;27;19962;-59
2021/12/29 01:04:24;;;;;;;;;;;5.60;99.90;;;;;;5125046;27;20008;-58
2021/12/29 01:06:51;;;;;;;;;;;5.60;99.90;;;;;;5130257;27;19939;-58
2021/12/29 01:09:16;;;;;;;;;;;5.60;99.90;;;;;;5143424;27;20295;-59
2021/12/29 01:11:42;;;;;;;;;;;5.60;99.90;;;;;;5116854;27;19927;-58
2021/12/29 01:14:08;;;;;;;;;;;5.60;99.90;;;;;;5143181;27;19927;-58
2021/12/29 01:19:00;;;;;;;;;;;5.60;99.90;;;;;;5140144;27;19927;-59
2021/12/29 01:21:26;;;;;;;;;;;5.60;99.90;;;;;;5137496;27;19935;-57
2021/12/29 01:23:51;;;;;;;;;;;5.60;99.90;;;;;;5141186;27;20041;-58
2021/12/29 01:26:17;;;;;;;;;;;5.60;99.90;;;;;;5140573;27;19927;-57
2021/12/29 01:28:43;;;;;;;;;;;5.70;99.90;;;;;;5133215;27;19927;-58
2021/12/29 01:31:08;;;;;;;;;;;6.30;99.90;;;;;;5136041;27;20398;-59
2021/12/29 01:33:34;;;;;;;;;;;6.10;99.90;;;;;;5140129;27;19982;-58
2021/12/29 01:35:59;;;;;;;;;;;5.70;99.90;;;;;;5132378;27;19981;-58
2021/12/29 01:38:25;;;;;;;;;;;5.70;99.90;;;;;;5141203;27;19938;-58
2021/12/29 01:40:51;;;;;;;;;;;5.70;99.90;;;;;;5149040;27;19927;-58
2021/12/29 01:43:17;;;;;;;;;;;5.70;99.90;;;;;;5147763;27;19931;-57
2021/12/29 01:45:43;;;;;;;;;;;5.90;99.90;;;;;;5136314;27;19934;-57
2021/12/29 01:48:09;;;;;;;;;;;5.70;99.90;;;;;;5135979;27;19927;-57
2021/12/29 01:50:35;;;;;;;;;;;5.90;99.90;;;;;;5135339;27;19927;-58
2021/12/29 01:53:07;;;;;;;;;;;5.80;99.90;;;;;;5144509;27;20269;-58
2021/12/29 01:55:33;;;;;;;;;;;5.80;99.90;;;;;;5136010;27;19974;-58
2021/12/29 01:57:59;;;;;;;;;;;5.80;99.90;;;;;;5136296;27;19931;-60
2021/12/29 02:00:26;;;;;;;;;;;5.80;99.90;;;;;;5146371;27;20411;-61
2021/12/29 02:02:52;;;;;;;;;;;5.80;99.90;;;;;;5146913;27;20361;-57
2021/12/29 02:05:18;;;;;;;;;;;6.10;99.90;;;;;;5142807;27;19988;-59
2021/12/29 02:07:44;;;;;;;;;;;5.90;99.90;;;;;;5139468;27;20352;-58
2021/12/29 02:10:11;;;;;;;;;;;5.80;99.90;;;;;;5144559;27;19931;-59
2021/12/29 02:12:37;;;;;;;;;;;5.90;99.90;;;;;;5139890;27;20420;-63
2021/12/29 02:15:04;;;;;;;;;;;5.90;99.90;;;;;;5140909;27;20023;-58
2021/12/29 02:17:29;;;;;;;;;;;5.80;99.90;;;;;;5135914;27;19932;-58
2021/12/29 02:20:06;;;;;;;;;;;5.90;99.90;;;;;;5141958;27;20414;-59
2021/12/29 02:22:44;;;;;;;;;;;6.00;99.90;;;;;;5135980;27;19975;-58
2021/12/29 02:27:43;;;;;;;;;;;6.00;99.90;;;;;;5133645;27;20384;-67
2021/12/29 02:30:09;;;;;;;;;;;6.20;99.90;;;;;;5129420;27;19934;-66
2021/12/29 02:32:34;;;;;;;;;;;6.00;99.90;;;;;;5141261;27;20292;-58
2021/12/29 02:35:00;;;;;;;;;;;6.00;99.90;;;;;;5138334;27;19934;-62
2021/12/29 02:37:26;;;;;;;;;;;6.00;99.90;;;;;;5133025;27;19980;-60
2021/12/29 02:39:52;;;;;;;;;;;6.00;99.90;;;;;;5147089;27;19927;-58
2021/12/29 02:42:19;;;;;;;;;;;6.20;99.90;;;;;;5134077;27;19927;-57
2021/12/29 02:44:46;;;;;;;;;;;6.00;99.90;;;;;;5138634;27;19927;-59
2021/12/29 02:47:12;;;;;;;;;;;6.70;99.90;;;;;;5135738;27;20439;-59
2021/12/29 02:49:37;;;;;;;;;;;6.00;99.90;;;;;;5138088;27;20023;-60
2021/12/29 02:52:03;;;;;;;;;;;6.00;99.90;;;;;;5142149;27;19927;-60
2021/12/29 02:54:29;;;;;;;;;;;6.00;99.90;;;;;;5140186;27;19977;-60
2021/12/29 02:56:54;;;;;;;;;;;6.10;99.90;;;;;;5137946;27;19972;-60
2021/12/29 02:59:21;;;;;;;;;;;6.10;99.90;;;;;;5150539;27;20022;-59
2021/12/29 03:01:46;;;;;;;;;;;6.10;99.90;;;;;;5137783;27;20067;-57
2021/12/29 03:04:12;;;;;;;;;;;6.10;99.90;;;;;;5133402;27;20384;-60
2021/12/29 03:06:38;;;;;;;;;;;6.10;99.90;;;;;;5138019;27;20032;-58
2021/12/29 03:09:05;;;;;;;;;;;6.10;99.90;;;;;;5139707;27;19927;-56
2021/12/29 03:11:30;;;;;;;;;;;6.20;99.90;;;;;;5130462;27;20293;-56
2021/12/29 03:13:56;;;;;;;;;;;6.10;99.90;;;;;;5137838;27;19939;-56
2021/12/29 03:16:22;;;;;;;;;;;6.10;99.90;;;;;;5134243;27;19923;-56
2021/12/29 03:18:47;;;;;;;;;;;6.20;99.90;;;;;;5144370;27;19923;-56
2021/12/29 03:21:14;;;;;;;;;;;6.20;99.90;;;;;;5136969;27;20316;-59
2021/12/29 03:23:40;;;;;;;;;;;6.40;99.90;;;;;;5143243;27;19967;-56
2021/12/29 03:26:06;;;;;;;;;;;6.30;99.90;;;;;;5146840;27;20026;-56
2021/12/29 03:28:32;;;;;;;;;;;6.90;99.90;;;;;;5138304;27;20387;-56
2021/12/29 03:30:58;;;;;;;;;;;6.30;99.90;;;;;;5145798;27;20019;-56
2021/12/29 03:33:25;;;;;;;;;;;6.40;99.90;;;;;;5140281;27;19928;-56
2021/12/29 03:35:52;;;;;;;;;;;6.50;99.90;;;;;;5140736;27;19927;-56
2021/12/29 03:38:19;;;;;;;;;;;6.30;99.90;;;;;;5132224;27;19927;-56
2021/12/29 03:40:45;;;;;;;;;;;6.90;99.90;;;;;;5150940;27;19926;-56
2021/12/29 03:43:11;;;;;;;;;;;6.40;99.90;;;;;;5141759;27;19927;-55
2021/12/29 03:45:37;;;;;;;;;;;6.40;99.90;;;;;;5137798;27;20059;-56
2021/12/29 03:48:04;;;;;;;;;;;6.60;99.90;;;;;;5137309;27;20320;-56
2021/12/29 03:50:29;;;;;;;;;;;6.40;99.90;;;;;;5133225;27;19958;-56
2021/12/29 03:52:55;;;;;;;;;;;6.60;99.90;;;;;;5140183;27;20341;-57
2021/12/29 03:55:21;;;;;;;;;;;6.30;99.90;;;;;;5137480;27;19928;-55
2021/12/29 03:57:46;;;;;;;;;;;6.30;99.90;;;;;;5142691;27;19938;-56
2021/12/29 04:00:14;;;;;;;;;;;6.40;99.90;;;;;;5146294;27;19947;-58
2021/12/29 04:02:40;;;;;;;;;;;6.40;99.90;;;;;;5132014;27;20410;-56
2021/12/29 04:05:06;;;;;;;;;;;6.50;99.90;;;;;;5138624;27;20372;-56
2021/12/29 04:07:32;;;;;;;;;;;6.40;99.90;;;;;;5141043;27;19923;-57
2021/12/29 04:09:58;;;;;;;;;;;6.40;99.90;;;;;;5145133;27;20273;-56
2021/12/29 04:12:23;;;;;;;;;;;6.80;99.90;;;;;;5133137;27;19927;-56
2021/12/29 04:14:49;;;;;;;;;;;6.50;99.90;;;;;;5143311;27;20353;-59
2021/12/29 04:17:18;;;;;;;;;;;6.50;99.90;;;;;;5139909;27;19974;-58
2021/12/29 04:22:29;;;;;;;;;;;6.50;99.90;;;;;;5146795;27;20766;-56
2021/12/29 04:24:54;;;;;;;;;;;6.50;99.90;;;;;;5137243;27;19927;-56
2021/12/29 04:27:24;;;;;;;;;;;6.50;99.90;;;;;;5140213;27;19927;-55
2021/12/29 04:29:51;;;;;;;;;;;6.70;99.90;;;;;;5134207;27;19931;-56
2021/12/29 04:32:17;;;;;;;;;;;6.50;99.90;;;;;;5135261;27;20340;-55
2021/12/29 04:34:42;;;;;;;;;;;6.50;99.90;;;;;;5138509;27;19927;-56
2021/12/29 04:37:08;;;;;;;;;;;6.50;99.90;;;;;;5140247;27;20038;-56
2021/12/29 04:39:34;;;;;;;;;;;6.50;99.90;;;;;;5141123;27;20305;-56
2021/12/29 04:41:59;;;;;;;;;;;6.50;99.90;;;;;;5149743;27;20017;-55
2021/12/29 04:44:25;;;;;;;;;;;6.50;99.90;;;;;;5139386;27;20733;-59
2021/12/29 04:46:51;;;;;;;;;;;6.50;99.90;;;;;;5143490;27;20033;-57
2021/12/29 04:49:23;;;;;;;;;;;6.50;99.90;;;;;;5132759;27;20018;-56
2021/12/29 04:51:55;;;;;;;;;;;6.50;99.90;;;;;;5144516;27;19927;-56
2021/12/29 04:54:21;;;;;;;;;;;6.50;99.90;;;;;;5137356;27;19933;-59
2021/12/29 04:56:47;;;;;;;;;;;6.50;99.90;;;;;;5144202;27;19931;-56
2021/12/29 04:59:15;;;;;;;;;;;6.50;99.90;;;;;;5138148;27;19927;-56
2021/12/29 05:01:41;;;;;;;;;;;6.50;99.90;;;;;;5131835;27;19988;-59
2021/12/29 05:04:07;;;;;;;;;;;6.60;99.90;;;;;;5146093;27;19931;-56
2021/12/29 05:09:17;;;;;;;;;;;6.60;99.90;;;;;;5142990;27;19975;-56
2021/12/29 05:11:42;;;;;;;;;;;7.10;99.90;;;;;;5135499;27;19927;-56
2021/12/29 05:14:08;;;;;;;;;;;6.60;99.90;;;;;;5135831;27;19927;-56
2021/12/29 05:16:33;;;;;;;;;;;6.60;99.90;;;;;;5145143;27;19992;-56
2021/12/29 05:18:59;;;;;;;;;;;6.60;99.90;;;;;;5138983;27;20284;-56
2021/12/29 05:21:25;;;;;;;;;;;7.10;99.90;;;;;;5136275;27;19927;-57
2021/12/29 05:23:51;;;;;;;;;;;6.60;99.90;;;;;;5133066;27;19933;-56
2021/12/29 05:26:17;;;;;;;;;;;6.60;99.90;;;;;;5140909;27;20307;-56
2021/12/29 05:28:42;;;;;;;;;;;6.60;99.90;;;;;;5134638;27;20384;-56
2021/12/29 05:31:08;;;;;;;;;;;6.70;99.90;;;;;;5143689;27;19927;-56
2021/12/29 05:33:33;;;;;;;;;;;6.80;99.90;;;;;;5139571;27;20342;-57
2021/12/29 05:35:59;;;;;;;;;;;6.70;99.90;;;;;;5142394;27;19994;-57
2021/12/29 05:38:24;;;;;;;;;;;7.10;99.90;;;;;;5131939;27;19943;-58
2021/12/29 05:40:52;;;;;;;;;;;6.70;99.90;;;;;;5147328;27;19926;-56
2021/12/29 05:43:18;;;;;;;;;;;6.70;99.90;;;;;;5139653;27;20321;-55
2021/12/29 05:45:44;;;;;;;;;;;6.70;99.90;;;;;;5134559;27;19935;-56
2021/12/29 05:48:09;;;;;;;;;;;6.70;99.90;;;;;;5143042;27;19928;-56
2021/12/29 05:50:35;;;;;;;;;;;6.70;99.90;;;;;;5137854;27;19927;-55
2021/12/29 05:53:01;;;;;;;;;;;6.70;99.90;;;;;;5141120;27;19931;-56
2021/12/29 05:55:27;;;;;;;;;;;6.70;99.90;;;;;;5136309;27;20167;-56
2021/12/29 05:57:53;;;;;;;;;;;7.10;99.90;;;;;;5132745;27;19932;-57
2021/12/29 06:00:19;;;;;;;;;;;6.70;99.90;;;;;;5131304;27;20382;-56
2021/12/29 06:02:45;;;;;;;;;;;6.70;99.90;;;;;;5143508;27;20464;-56
2021/12/29 06:05:11;;;;;;;;;;;6.70;99.90;;;;;;5140329;27;19927;-56
2021/12/29 06:07:37;;;;;;;;;;;7.00;99.90;;;;;;5139315;27;19938;-56
2021/12/29 06:10:03;;;;;;;;;;;7.00;99.90;;;;;;5130872;27;20262;-56
2021/12/29 06:12:29;;;;;;;;;;;6.80;99.90;;;;;;5147367;27;19927;-58
2021/12/29 06:14:55;;;;;;;;;;;6.80;99.90;;;;;;5139123;27;20422;-56
2021/12/29 06:17:20;;;;;;;;;;;6.70;99.90;;;;;;5142517;27;20343;-57
2021/12/29 06:19:46;;;;;;;;;;;6.70;99.90;;;;;;5142139;27;19927;-59
2021/12/29 06:22:11;;;;;;;;;;;6.70;99.90;;;;;;5139709;27;20014;-60
2021/12/29 06:24:38;;;;;;;;;;;6.70;99.90;;;;;;5142247;27;20455;-58
2021/12/29 06:27:04;;;;;;;;;;;6.70;99.90;;;;;;5142485;27;19927;-64
2021/12/29 06:29:29;;;;;;;;;;;6.80;99.90;;;;;;5135083;27;20654;-67
2021/12/29 06:31:55;;;;;;;;;;;6.70;99.90;;;;;;5134114;27;19927;-67
2021/12/29 06:34:21;;;;;;;;;;;6.70;99.90;;;;;;5137743;27;20301;-63
2021/12/29 06:36:46;;;;;;;;;;;7.00;99.90;;;;;;5140684;27;20407;-67
2021/12/29 06:39:12;;;;;;;;;;;6.80;99.90;;;;;;5147728;27;19927;-68
2021/12/29 06:41:38;;;;;;;;;;;6.70;99.90;;;;;;5148889;27;19926;-55
2021/12/29 06:44:03;;;;;;;;;;;6.70;99.90;;;;;;5134272;27;19933;-56
2021/12/29 06:46:29;;;;;;;;;;;6.80;99.90;;;;;;5143852;27;19935;-56
2021/12/29 06:48:55;;;;;;;;;;;6.80;99.90;;;;;;5138420;27;19927;-56
2021/12/29 06:51:20;;;;;;;;;;;6.80;99.90;;;;;;5144425;27;20010;-55
2021/12/29 06:53:46;;;;;;;;;;;6.80;99.90;;;;;;5131668;27;20041;-56
2021/12/29 06:56:12;;;;;;;;;;;6.80;99.90;;;;;;5135923;27;20365;-58
2021/12/29 06:58:37;;;;;;;;;;;6.80;99.90;;;;;;5137438;27;19934;-56
2021/12/29 07:01:03;;;;;;;;;;;6.80;99.90;;;;;;5138351;27;19934;-55
2021/12/29 07:03:29;;;;;;;;;;;6.90;99.90;;;;;;5145409;27;20295;-55
2021/12/29 07:05:54;;;;;;;;;;;6.90;99.90;;;;;;5147102;27;19933;-55
2021/12/29 07:08:23;;;;;;;;;;;6.80;99.90;;;;;;5132983;27;19985;-55
2021/12/29 07:10:49;;;;;;;;;;;6.80;99.90;;;;;;5132917;27;19982;-55
2021/12/29 07:13:15;;;;;;;;;;;6.80;99.90;;;;;;5137806;27;20455;-56
2021/12/29 07:15:40;;;;;;;;;;;6.80;99.90;;;;;;5144903;27;20002;-55
2021/12/29 07:18:06;;;;;;;;;;;6.80;99.90;;;;;;5137798;27;20029;-55
2021/12/29 07:20:31;;;;;;;;;;;7.50;99.90;;;;;;5145216;27;19980;-55
2021/12/29 07:22:57;;;;;;;;;;;6.80;99.90;;;;;;5136616;27;19979;-57
2021/12/29 07:25:24;;;;;;;;;;;6.80;99.90;;;;;;5134819;27;19980;-56
2021/12/29 07:27:52;;;;;;;;;;;6.80;99.90;;;;;;5141908;27;20529;-56
2021/12/29 07:30:18;;;;;;;;;;;7.30;99.90;;;;;;5130577;27;19928;-56
2021/12/29 07:32:44;;;;;;;;;;;7.50;99.90;;;;;;5142187;27;20265;-56
2021/12/29 07:35:09;;;;;;;;;;;6.80;99.90;;;;;;5141774;27;20429;-55
2021/12/29 07:37:35;;;;;;;;;;;6.80;99.90;;;;;;5140435;27;20411;-56
2021/12/29 07:40:06;;;;;;;;;;;6.90;99.90;;;;;;5133261;27;19931;-56
2021/12/29 07:42:32;;;;;;;;;;;6.80;99.90;;;;;;5130635;27;20376;-59
2021/12/29 07:44:58;;;;;;;;;;;7.10;99.90;;;;;;5143024;27;19982;-55
2021/12/29 07:47:23;;;;;;;;;;;6.80;99.90;;;;;;5136503;27;19978;-58
2021/12/29 07:49:49;;;;;;;;;;;6.90;99.90;;;;;;5128973;27;20376;-56
2021/12/29 07:52:15;;;;;;;;;;;7.20;99.90;;;;;;5132375;27;19950;-60
2021/12/29 07:54:40;;;;;;;;;;;6.90;99.90;;;;;;5144792;27;20373;-56
2021/12/29 07:57:06;;;;;;;;;;;6.90;99.90;;;;;;5134523;27;20333;-57
2021/12/29 07:59:31;;;;;;;;;;;7.20;99.90;;;;;;5131879;27;19928;-56
2021/12/29 08:01:57;;;;;;;;;;;6.90;99.90;;;;;;5136571;27;19983;-58
2021/12/29 08:04:22;;;;;;;;;;;6.90;99.90;;;;;;5131035;27;20342;-57
2021/12/29 08:06:48;;;;;;;;;;;6.90;99.90;;;;;;5130704;27;20030;-56
2021/12/29 08:09:14;;;;;;;;;;;6.90;99.90;;;;;;5134255;27;20451;-57
2021/12/29 08:11:40;;;;;;;;;;;6.90;99.90;;;;;;5143326;27;19934;-56
2021/12/29 08:14:06;;;;;;;;;;;7.00;99.90;;;;;;5135352;27;19927;-56
2021/12/29 08:16:31;;;;;;;;;;;7.20;99.90;;;;;;5142202;27;19927;-55
2021/12/29 08:18:57;;;;;;;;;;;6.90;99.90;;;;;;5142610;27;19934;-56
2021/12/29 08:21:23;;;;;;;;;;;7.00;99.90;;;;;;5138175;27;20532;-55
2021/12/29 08:23:48;;;;;;;;;;;7.00;99.90;;;;;;5131621;27;19934;-56
2021/12/29 08:26:14;;;;;;;;;;;6.90;99.90;;;;;;5137194;27;20281;-56
2021/12/29 08:28:39;;;;;;;;;;;7.00;99.90;;;;;;5137644;27;20392;-58
2021/12/29 08:31:05;;;;;;;;;;;7.00;99.90;;;;;;5141765;27;20078;-56
2021/12/29 08:33:31;;;;;;;;;;;7.00;99.90;;;;;;5131038;27;20053;-56
2021/12/29 08:35:56;;;;;;;;;;;7.00;99.90;;;;;;5130796;27;20013;-56
2021/12/29 08:38:22;;;;;;;;;;;7.00;99.90;;;;;;5139505;27;20288;-55
2021/12/29 08:40:48;;;;;;;;;;;7.00;99.90;;;;;;5144091;27;19996;-56
2021/12/29 08:43:16;;;;;;;;;;;7.00;99.90;;;;;;5139925;27;19927;-56
2021/12/29 08:45:42;;;;;;;;;;;7.20;99.90;;;;;;5124270;27;20419;-57
2021/12/29 08:48:09;;;;;;;;;;;7.10;99.90;;;;;;5134493;27;19934;-56
2021/12/29 08:50:34;;;;;;;;;;;7.10;99.90;;;;;;5132281;27;20371;-58
2021/12/29 08:53:05;;;;;;;;;;;7.10;99.90;;;;;;5127951;27;19947;-56
2021/12/29 08:55:31;;;;;;;;;;;7.10;99.90;;;;;;5124961;27;19932;-58
2021/12/29 08:57:57;;;;;;;;;;;7.10;99.90;;;;;;5126876;27;20038;-56
2021/12/29 09:00:22;;;;;;;;;;;7.20;99.90;;;;;;5127821;27;20663;-57
2021/12/29 09:02:48;;;;;;;;;;;7.10;99.90;;;;;;5126612;27;19980;-57
2021/12/29 09:05:16;;;;;;;;;;;7.10;99.90;;;;;;5128029;27;20000;-58
2021/12/29 09:07:42;;;;;;;;;;;7.10;99.90;;;;;;5127160;27;19927;-59
2021/12/29 09:10:09;;;;;;;;;;;7.10;99.90;;;;;;5131945;27;20332;-60
2021/12/29 09:12:34;;;;;;;;;;;7.20;99.90;;;;;;5124560;27;20452;-59
2021/12/29 09:15:01;;;;;;;;;;;7.20;99.90;;;;;;5125851;27;20034;-59
2021/12/29 09:17:27;;;;;;;;;;;7.30;99.90;;;;;;5124499;27;19974;-57
2021/12/29 09:19:52;;;;;;;;;;;7.20;99.90;;;;;;5126897;27;20289;-57
2021/12/29 09:22:18;;;;;;;;;;;7.20;99.90;;;;;;5129400;27;19927;-56
2021/12/29 09:24:46;;;;;;;;;;;7.20;99.90;;;;;;5125466;27;20475;-57
2021/12/29 09:27:11;;;;;;;;;;;7.20;99.90;;;;;;5124069;27;19927;-59
2021/12/29 09:29:37;;;;;;;;;;;7.30;99.90;;;;;;5126311;27;19938;-57
2021/12/29 09:32:04;;;;;;;;;;;7.30;99.90;;;;;;5130157;27;20030;-57
2021/12/29 09:34:30;;;;;;;;;;;7.30;99.90;;;;;;5137499;27;20061;-59
2021/12/29 09:36:55;;;;;;;;;;;7.60;99.90;;;;;;5136819;27;19933;-59
2021/12/29 09:39:21;;;;;;;;;;;7.70;99.90;;;;;;5137981;27;19974;-59
2021/12/29 09:41:47;;;;;;;;;;;7.80;99.90;;;;;;5129845;27;20479;-60
2021/12/29 09:44:12;;;;;;;;;;;7.50;99.90;;;;;;5145633;27;19934;-59
2021/12/29 09:46:38;;;;;;;;;;;7.50;99.90;;;;;;5134582;27;19930;-60
2021/12/29 09:49:04;;;;;;;;;;;7.50;99.90;;;;;;5134228;27;19927;-58
2021/12/29 09:51:30;;;;;;;;;;;7.50;99.90;;;;;;5126730;27;19931;-63
2021/12/29 09:53:56;;;;;;;;;;;7.60;99.90;;;;;;5136585;27;20393;-57
2021/12/29 09:56:22;;;;;;;;;;;7.70;99.90;;;;;;5133023;27;19981;-58
2021/12/29 09:58:47;;;;;;;;;;;7.70;99.90;;;;;;5135832;27;19931;-59
2021/12/29 10:01:13;;;;;;;;;;;7.70;99.90;;;;;;5137808;27;19935;-57
2021/12/29 10:03:42;;;;;;;;;;;7.80;99.90;;;;;;5128518;27;19934;-57
2021/12/29 10:06:08;;;;;;;;;;;7.80;99.90;;;;;;5137845;27;19927;-57
2021/12/29 10:08:35;;;;;;;;;;;7.80;99.90;;;;;;5132909;27;20440;-61
2021/12/29 10:11:03;;;;;;;;;;;7.80;99.90;;;;;;5130693;27;19928;-60
2021/12/29 10:13:29;;;;;;;;;;;7.90;99.90;;;;;;5130913;27;19979;-66
2021/12/29 10:16:00;;;;;;;;;;;7.90;99.90;;;;;;5130701;27;19935;-63
2021/12/29 10:18:27;;;;;;;;;;;7.90;99.90;;;;;;5129482;27;19974;-59
2021/12/29 10:20:55;;;;;;;;;;;8.00;99.90;;;;;;5128058;27;19927;-56
2021/12/29 10:23:43;;;;;;;;;;;8.10;99.90;;;;;;5128208;27;19970;-56
2021/12/29 10:26:09;;;;;;;;;;;8.10;99.90;;;;;;5125343;27;19927;-55
2021/12/29 10:28:36;;;;;;;;;;;8.10;99.90;;;;;;5129834;27;19938;-57
2021/12/29 10:31:06;;;;;;;;;;;8.20;99.90;;;;;;5133945;27;19927;-57
2021/12/29 10:33:33;;;;;;;;;;;8.20;99.90;;;;;;5134665;27;19928;-59
2021/12/29 10:36:09;;;;;;;;;;;8.30;99.90;;;;;;5133760;27;19927;-56
2021/12/29 10:38:34;;;;;;;;;;;8.30;99.90;;;;;;5126993;27;19927;-57
2021/12/29 10:41:02;;;;;;;;;;;8.30;99.90;;;;;;5130049;27;19987;-59
2021/12/29 10:43:27;;;;;;;;;;;8.30;99.90;;;;;;5131362;27;19931;-57
2021/12/29 10:45:53;;;;;;;;;;;8.30;99.90;;;;;;5129527;27;19928;-56
2021/12/29 10:48:21;;;;;;;;;;;8.40;99.90;;;;;;5129538;27;19923;-57
2021/12/29 10:50:58;;;;;;;;;;;8.40;99.90;;;;;;5129539;27;20552;-56
2021/12/29 10:53:24;;;;;;;;;;;8.50;99.90;;;;;;5131086;27;19927;-56
2021/12/29 10:55:50;;;;;;;;;;;8.60;99.90;;;;;;5139268;27;19950;-56
2021/12/29 10:58:20;;;;;;;;;;;9.00;99.90;;;;;;5129126;27;19949;-60
2021/12/29 11:00:55;;;;;;;;;;;8.90;99.90;;;;;;5136849;27;19954;-57
2021/12/29 11:03:21;;;;;;;;;;;8.70;99.90;;;;;;5131798;27;19932;-57
2021/12/29 11:05:50;;;;;;;;;;;8.70;99.90;;;;;;5129913;27;19938;-56
2021/12/29 11:08:17;;;;;;;;;;;8.80;99.90;;;;;;5134476;27;19949;-57
2021/12/29 11:10:43;;;;;;;;;;;8.80;99.90;;;;;;5128093;27;19928;-56
2021/12/29 11:13:09;;;;;;;;;;;8.70;99.90;;;;;;5131891;27;19927;-57
2021/12/29 11:15:38;;;;;;;;;;;8.70;99.90;;;;;;5126668;27;19927;-59
2021/12/29 11:18:06;;;;;;;;;;;8.70;99.90;;;;;;5135008;27;20392;-57
2021/12/29 11:20:32;;;;;;;;;;;8.90;99.90;;;;;;5127936;27;19927;-57
2021/12/29 11:23:05;;;;;;;;;;;8.70;99.90;;;;;;5128458;27;19927;-56
2021/12/29 11:25:32;;;;;;;;;;;8.80;99.90;;;;;;5127964;27;20387;-56
2021/12/29 11:27:57;;;;;;;;;;;8.80;99.90;;;;;;5129672;27;19938;-55
2021/12/29 11:30:23;;;;;;;;;;;8.70;99.90;;;;;;5130042;27;19928;-66
2021/12/29 11:32:49;;;;;;;;;;;8.70;99.90;;;;;;5131829;27;19963;-56
2021/12/29 11:35:23;;;;;;;;;;;8.70;99.90;;;;;;5132669;27;20268;-57
2021/12/29 11:37:50;;;;;;;;;;;8.60;99.90;;;;;;5129759;27;20408;-55
2021/12/29 11:40:18;;;;;;;;;;;8.60;99.90;;;;;;5128280;27;20349;-56
2021/12/29 11:42:44;;;;;;;;;;;8.70;99.90;;;;;;5126283;27;19934;-56
2021/12/29 11:45:10;;;;;;;;;;;8.80;99.90;;;;;;5123159;27;19927;-56
2021/12/29 11:47:37;;;;;;;;;;;8.70;99.90;;;;;;5129759;27;19927;-56
2021/12/29 11:50:03;;;;;;;;;;;8.80;99.90;;;;;;5127615;27;20010;-59
2021/12/29 11:52:41;;;;;;;;;;;8.70;99.90;;;;;;5140300;27;19934;-55
2021/12/29 11:55:11;;;;;;;;;;;8.70;99.90;;;;;;5131919;27;19971;-57
2021/12/29 11:57:37;;;;;;;;;;;9.00;99.90;;;;;;5132941;27;19931;-61
2021/12/29 12:00:11;;;;;;;;;;;8.90;99.90;;;;;;5126764;27;19931;-57
2021/12/29 12:02:36;;;;;;;;;;;8.70;99.90;;;;;;5125938;27;19934;-57
2021/12/29 12:05:09;;;;;;;;;;;8.70;99.90;;;;;;5129761;27;19927;-56
2021/12/29 12:07:39;;;;;;;;;;;8.70;99.90;;;;;;5126297;27;20085;-56
2021/12/29 12:10:11;;;;;;;;;;;8.80;99.90;;;;;;5133124;27;19926;-56
2021/12/29 12:12:37;;;;;;;;;;;8.80;99.90;;;;;;5137689;27;20415;-57
2021/12/29 12:15:06;;;;;;;;;;;8.80;99.90;;;;;;5127869;27;19927;-58
2021/12/29 12:17:33;;;;;;;;;;;8.80;99.90;;;;;;5128964;27;20417;-56
2021/12/29 12:20:01;;;;;;;;;;;8.90;99.90;;;;;;5135981;27;20261;-60
2021/12/29 12:22:27;;;;;;;;;;;8.80;99.90;;;;;;5126665;27;19944;-59
2021/12/29 12:24:55;;;;;;;;;;;9.20;99.90;;;;;;5127876;27;19933;-59
2021/12/29 12:27:40;;;;;;;;;;;8.70;99.90;;;;;;5132049;27;19989;-57
2021/12/29 12:30:06;;;;;;;;;;;8.70;99.90;;;;;;5141205;27;19987;-60
2021/12/29 12:32:40;;;;;;;;;;;8.70;99.90;;;;;;5134367;27;19932;-60
2021/12/29 12:35:06;;;;;;;;;;;8.70;99.90;;;;;;5129195;27;20052;-59
2021/12/29 12:37:42;;;;;;;;;;;8.70;99.90;;;;;;5129632;27;20151;-58
2021/12/29 12:40:20;;;;;;;;;;;8.70;99.90;;;;;;5129463;27;19950;-58
2021/12/29 12:42:56;;;;;;;;;;;8.70;99.90;;;;;;5110832;27;19935;-60
2021/12/29 12:45:22;;;;;;;;;;;8.30;99.90;;;;;;5129347;27;19975;-57
2021/12/29 12:47:48;;;;;;;;;;;8.80;99.90;;;;;;5128292;27;20043;-57
2021/12/29 12:50:27;;;;;;;;;;;8.90;99.90;;;;;;5133977;27;19928;-56
2021/12/29 12:52:55;;;;;;;;;;;8.80;99.90;;;;;;5125773;27;19927;-56
2021/12/29 12:55:20;;;;;;;;;;;8.80;99.90;;;;;;5133648;27;19927;-60
2021/12/29 12:57:49;;;;;;;;;;;8.80;99.90;;;;;;5132463;27;19933;-56
2021/12/29 13:00:15;;;;;;;;;;;8.80;99.90;;;;;;5141214;27;19983;-57
2021/12/29 13:02:42;;;;;;;;;;;8.80;99.90;;;;;;5109867;27;19927;-57
2021/12/29 13:05:08;;;;;;;;;;;8.80;99.90;;;;;;5131443;27;19927;-57
2021/12/29 13:07:34;;;;;;;;;;;9.00;99.90;;;;;;5133543;27;19979;-56
2021/12/29 13:10:00;;;;;;;;;;;8.70;99.90;;;;;;5128828;27;20254;-57
2021/12/29 13:12:26;;;;;;;;;;;8.70;99.90;;;;;;5135403;27;19969;-56
2021/12/29 13:14:57;;;;;;;;;;;9.00;99.90;;;;;;5124921;27;19931;-57
2021/12/29 13:17:23;;;;;;;;;;;8.60;99.90;;;;;;5126028;27;19934;-58
2021/12/29 13:19:49;;;;;;;;;;;8.60;99.90;;;;;;5132592;27;20314;-56
2021/12/29 13:22:27;;;;;;;;;;;8.60;99.90;;;;;;5125581;27;20216;-57
2021/12/29 13:24:53;;;;;;;;;;;10.20;99.90;;;;;;5126420;27;19934;-59
2021/12/29 13:27:21;;;;;;;;;;;8.50;99.90;;;;;;5126447;27;19927;-59
2021/12/29 13:29:59;;;;;;;;;;;8.70;99.90;;;;;;5136782;27;19927;-56
2021/12/29 13:32:26;;;;;;;;;;;8.50;99.90;;;;;;5132809;27;19927;-58
2021/12/29 13:35:05;;;;;;;;;;;8.50;99.90;;;;;;5130999;27;19927;-57
2021/12/29 13:37:31;;;;;;;;;;;8.40;99.90;;;;;;5137758;27;20375;-60
2021/12/29 13:39:56;;;;;;;;;;;8.40;99.90;;;;;;5133058;27;20014;-59
2021/12/29 13:42:23;;;;;;;;;;;8.40;99.90;;;;;;5131076;27;19935;-59
2021/12/29 13:44:48;;;;;;;;;;;8.30;99.90;;;;;;5138389;27;20353;-59
2021/12/29 13:47:23;;;;;;;;;;;8.40;99.90;;;;;;5135575;27;19927;-60
2021/12/29 13:49:49;;;;;;;;;;;8.40;99.90;;;;;;5125874;27;20016;-59
2021/12/29 13:52:15;;;;;;;;;;;8.30;99.90;;;;;;5128765;27;20051;-60
2021/12/29 13:54:40;;;;;;;;;;;8.30;99.90;;;;;;5129612;27;20292;-60
2021/12/29 13:57:06;;;;;;;;;;;8.30;99.90;;;;;;5134533;27;19928;-59
2021/12/29 13:59:33;;;;;;;;;;;8.30;99.90;;;;;;5128140;27;19926;-59
2021/12/29 14:02:02;;;;;;;;;;;8.30;99.90;;;;;;5136549;27;20258;-59
2021/12/29 14:04:33;;;;;;;;;;;8.40;99.90;;;;;;5122525;27;20410;-56
2021/12/29 14:07:00;;;;;;;;;;;8.30;99.90;;;;;;5130840;27;20292;-58
2021/12/29 14:09:30;;;;;;;;;;;8.30;99.90;;;;;;5128558;27;20012;-57
2021/12/29 14:12:09;;;;;;;;;;;8.30;99.90;;;;;;5130667;27;19931;-58
2021/12/29 14:14:36;;;;;;;;;;;8.30;99.90;;;;;;5124623;27;20352;-58
2021/12/29 14:17:01;;;;;;;;;;;8.30;99.90;;;;;;5127714;27;20014;-56
2021/12/29 14:19:29;;;;;;;;;;;8.20;99.90;;;;;;5136542;27;20038;-58
2021/12/29 14:21:55;;;;;;;;;;;8.20;99.90;;;;;;5136078;27;19927;-59
2021/12/29 14:24:21;;;;;;;;;;;8.10;99.90;;;;;;5126887;27;20549;-56
2021/12/29 14:26:49;;;;;;;;;;;8.10;99.90;;;;;;5124985;27;19931;-58
2021/12/29 14:29:16;;;;;;;;;;;8.00;99.90;;;;;;5137845;27;20051;-56
2021/12/29 14:31:43;;;;;;;;;;;8.00;99.90;;;;;;5132012;27;19934;-57
2021/12/29 14:34:11;;;;;;;;;;;8.00;99.90;;;;;;5127544;27;19927;-57
2021/12/29 14:36:44;;;;;;;;;;;7.90;99.90;;;;;;5134735;27;19953;-56
2021/12/29 14:39:12;;;;;;;;;;;7.90;99.90;;;;;;5136210;27;19971;-57